createdAt,value
2022-11-16T00:02:50.192Z,1009.2
2022-11-16T00:08:38.078Z,1009.3
2022-11-16T00:13:48.388Z,1009.3
2022-11-16T00:19:24.892Z,1009.5
2022-11-16T00:25:19.112Z,1009.4
2022-11-16T00:30:51.781Z,1009.5
2022-11-16T00:35:58.177Z,1009.5
2022-11-16T00:41:37.770Z,1009.6
2022-11-16T00:47:18.143Z,1009.6
2022-11-16T00:52:37.189Z,1009.8
2022-11-16T00:58:07.661Z,1009.8
2022-11-16T01:03:43.683Z,1009.8
2022-11-16T01:09:25.044Z,1009.5
2022-11-16T01:14:50.351Z,1009.8
2022-11-16T01:20:37.211Z,1009.9
2022-11-16T01:26:10.826Z,1009.9
2022-11-16T01:31:48.649Z,1010
2022-11-16T01:36:54.216Z,1010.2
2022-11-16T01:48:15.428Z,1010.1
2022-11-16T01:53:42.270Z,1010
2022-11-16T01:59:32.486Z,1010
2022-11-16T02:04:43.349Z,1010
2022-11-16T02:10:13.565Z,1010.1
2022-11-16T02:15:47.893Z,1009.9
2022-11-16T02:21:20.918Z,1010
2022-11-16T02:27:04.829Z,1009.9
2022-11-16T02:32:47.025Z,1009.8
2022-11-16T02:38:07.480Z,1009.7
2022-11-16T02:43:51.581Z,1009.7
2022-11-16T02:49:25.428Z,1009.8
2022-11-16T02:54:38.645Z,1009.8
2022-11-16T03:00:15.479Z,1009.7
2022-11-16T03:06:01.716Z,1009.8
2022-11-16T03:11:29.197Z,1009.8
2022-11-16T03:16:47.350Z,1009.6
2022-11-16T03:22:23.388Z,1009.5
2022-11-16T03:28:14.087Z,1009.6
2022-11-16T03:33:24.899Z,1009.6
2022-11-16T03:39:07.945Z,1009.5
2022-11-16T03:44:49.266Z,1009.4
2022-11-16T03:50:15.526Z,1009.5
2022-11-16T03:55:49.551Z,1009.5
2022-11-16T04:01:05.971Z,1009.4
2022-11-16T04:06:35.325Z,1009.3
2022-11-16T04:12:18.693Z,1009.4
2022-11-16T04:17:58.858Z,1009.3
2022-11-16T04:23:26.541Z,1009.3
2022-11-16T04:28:58.412Z,1009.1
2022-11-16T04:34:41.379Z,1009.2
2022-11-16T04:39:48.039Z,1009.1
2022-11-16T04:45:45.034Z,1009.1
2022-11-16T04:51:00.226Z,1009.2
2022-11-16T04:56:45.856Z,1009.2
2022-11-16T05:02:02.955Z,1009.2
2022-11-16T05:07:35.143Z,1009.4
2022-11-16T05:13:18.941Z,1009.4
2022-11-16T05:18:37.466Z,1009.2
2022-11-16T05:24:18.975Z,1009.3
2022-11-16T05:30:06.777Z,1009.4
2022-11-16T05:35:34.082Z,1009.3
2022-11-16T05:40:57.350Z,1009.3
2022-11-16T05:46:39.671Z,1009.3
2022-11-16T05:52:12.700Z,1009.3
2022-11-16T05:57:36.296Z,1009.4
2022-11-16T06:02:57.405Z,1009.4
2022-11-16T06:08:31.170Z,1009.4
2022-11-16T06:14:20.069Z,1009.3
2022-11-16T06:19:37.903Z,1009.3
2022-11-16T06:25:30.853Z,1009.2
2022-11-16T06:30:45.449Z,1009.4
2022-11-16T06:36:22.226Z,1009.4
2022-11-16T06:47:42.281Z,1009.5
2022-11-16T06:53:05.558Z,1009.5
2022-11-16T06:58:45.464Z,1009.5
2022-11-16T07:03:54.883Z,1009.5
2022-11-16T07:09:55.688Z,1009.5
2022-11-16T07:15:07.955Z,1009.6
2022-11-16T07:20:40.896Z,1009.5
2022-11-16T07:26:07.397Z,1009.6
2022-11-16T07:31:51.886Z,1009.5
2022-11-16T07:37:35.850Z,1009.7
2022-11-16T07:43:01.228Z,1009.7
2022-11-16T07:48:34.174Z,1009.6
2022-11-16T07:54:03.160Z,1009.6
2022-11-16T07:59:20.813Z,1009.6
2022-11-16T08:05:10.755Z,1009.7
2022-11-16T08:10:33.570Z,1009.7
2022-11-16T08:16:17.186Z,1009.8
2022-11-16T08:21:57.743Z,1009.7
2022-11-16T08:27:22.040Z,1009.8
2022-11-16T08:33:04.400Z,1009.7
2022-11-16T08:38:23.266Z,1009.6
2022-11-16T08:43:55.640Z,1009.5
2022-11-16T08:49:22.247Z,1009.5
2022-11-16T08:55:16.542Z,1009.4
2022-11-16T09:00:40.355Z,1009.6
2022-11-16T09:06:20.711Z,1009.5
2022-11-16T09:11:50.826Z,1009.5
2022-11-16T09:17:15.633Z,1009.4
2022-11-16T09:22:42.397Z,1009.3
2022-11-16T09:28:09.107Z,1009.3
2022-11-16T09:34:05.108Z,1009.3
2022-11-16T09:39:37.435Z,1009.3
2022-11-16T09:44:56.623Z,1009.4
2022-11-16T09:50:30.542Z,1009.4
2022-11-16T09:55:54.419Z,1009.3
2022-11-16T10:01:39.607Z,1009.3
2022-11-16T10:07:20.152Z,1009.2
2022-11-16T10:12:39.677Z,1009.2
2022-11-16T10:18:31.579Z,1009.2
2022-11-16T10:23:55.671Z,1009.1
2022-11-16T10:29:28.656Z,1009
2022-11-16T10:35:12.022Z,1008.7
2022-11-16T10:40:31.120Z,1008.5
2022-11-16T10:46:16.647Z,1008.4
2022-11-16T10:51:43.192Z,1008.3
2022-11-16T10:57:27.840Z,1008.3
2022-11-16T11:03:00.750Z,1007.9
2022-11-16T11:08:17.398Z,1007.9
2022-11-16T11:13:44.422Z,1007.9
2022-11-16T11:19:38.417Z,1007.9
2022-11-16T11:24:51.875Z,1007.9
2022-11-16T11:30:37.754Z,1007.7
2022-11-16T11:36:04.358Z,1007.5
2022-11-16T11:41:50.527Z,1007.4
2022-11-16T11:47:56.035Z,1007.2
2022-11-16T11:52:41.599Z,1007.2
2022-11-16T11:58:39.692Z,1007.4
2022-11-16T12:04:02.637Z,1007.3
2022-11-16T12:09:39.732Z,1007
2022-11-16T12:15:17.888Z,1007
2022-11-16T12:20:41.175Z,1006.6
2022-11-16T12:26:05.746Z,1006.5
2022-11-16T12:32:02.150Z,1006.7
2022-11-16T12:37:17.766Z,1006.4
2022-11-16T12:42:42.673Z,1006.3
2022-11-16T12:48:33.502Z,1006.3
2022-11-16T12:53:49.900Z,1006.1
2022-11-16T12:59:30.448Z,1006.1
2022-11-16T13:05:02.422Z,1005.9
2022-11-16T13:10:35.180Z,1005.7
2022-11-16T13:16:23.494Z,1005.8
2022-11-16T13:21:41.939Z,1005.6
2022-11-16T13:27:17.435Z,1005.5
2022-11-16T13:32:52.141Z,1005.6
2022-11-16T13:38:47.356Z,1005.6
2022-11-16T13:44:21.385Z,1005.6
2022-11-16T13:49:42.280Z,1005.6
2022-11-16T13:55:28.467Z,1005.3
2022-11-16T14:01:02.038Z,1005.4
2022-11-16T14:06:12.911Z,1005.5
2022-11-16T14:11:50.542Z,1005.7
2022-11-16T14:17:27.168Z,1005.7
2022-11-16T14:23:06.339Z,1005.6
2022-11-16T14:28:35.203Z,1005.5
2022-11-16T14:34:00.994Z,1005.4
2022-11-16T14:39:33.859Z,1005.6
2022-11-16T14:45:16.275Z,1005.5
2022-11-16T14:50:41.000Z,1005.6
2022-11-16T14:56:26.735Z,1005.6
2022-11-16T15:01:48.016Z,1005.7
2022-11-16T15:07:18.441Z,1005.7
2022-11-16T15:12:55.032Z,1005.9
2022-11-16T15:18:30.376Z,1005.9
2022-11-16T15:24:29.706Z,1005.7
2022-11-16T15:29:54.954Z,1005.5
2022-11-16T15:40:52.966Z,1005.5
2022-11-16T15:46:11.397Z,1005.5
2022-11-16T15:52:06.953Z,1005.7
2022-11-16T15:57:16.934Z,1005.9
2022-11-16T16:02:57.114Z,1005.8
2022-11-16T16:08:31.893Z,1005.8
2022-11-16T16:14:17.115Z,1005.9
2022-11-16T16:19:25.293Z,1006
2022-11-16T16:25:01.687Z,1006
2022-11-16T16:30:31.581Z,1006
2022-11-16T16:36:08.030Z,1006
2022-11-16T16:42:01.846Z,1006.2
2022-11-16T16:47:30.814Z,1006.2
2022-11-16T16:53:05.329Z,1006.3
2022-11-16T16:58:31.759Z,1006.3
2022-11-16T17:03:48.358Z,1006.2
2022-11-16T17:09:26.646Z,1006.2
2022-11-16T17:14:50.437Z,1006.1
2022-11-16T17:20:34.570Z,1006.1
2022-11-16T17:26:04.947Z,1006.1
2022-11-16T17:31:45.956Z,1006.1
2022-11-16T17:37:17.061Z,1006.1
2022-11-16T17:42:56.954Z,1006.1
2022-11-16T17:48:20.986Z,1006.1
2022-11-16T17:54:04.284Z,1006.1
2022-11-16T17:59:17.925Z,1006.1
2022-11-16T18:05:08.924Z,1006.1
2022-11-16T18:10:42.117Z,1005.9
2022-11-16T18:16:09.024Z,1005.8
2022-11-16T18:21:33.715Z,1005.6
2022-11-16T18:27:07.905Z,1005.6
2022-11-16T18:32:26.714Z,1005.5
2022-11-16T18:38:16.606Z,1005.7
2022-11-16T18:43:30.691Z,1005.9
2022-11-16T18:49:13.822Z,1005.5
2022-11-16T18:54:38.021Z,1005.6
2022-11-16T19:00:27.954Z,1005.5
2022-11-16T19:06:03.355Z,1005.1
2022-11-16T19:11:21.752Z,1005
2022-11-16T19:16:51.290Z,1004.9
2022-11-16T19:22:34.566Z,1005.2
2022-11-16T19:27:51.275Z,1005
2022-11-16T19:33:29.572Z,1005.2
2022-11-16T19:38:57.845Z,1005.1
2022-11-16T19:44:30.614Z,1005
2022-11-16T19:50:16.711Z,1004.9
2022-11-16T19:55:52.557Z,1004.8
2022-11-16T20:01:09.320Z,1004.6
2022-11-16T20:06:35.599Z,1004.5
2022-11-16T20:12:09.811Z,1004.5
2022-11-16T20:17:46.001Z,1004.7
2022-11-16T20:23:30.992Z,1004.9
2022-11-16T20:28:41.903Z,1004.9
2022-11-16T20:34:24.418Z,1004.7
2022-11-16T20:40:01.183Z,1004.7
2022-11-16T20:45:19.827Z,1004.8
2022-11-16T20:51:11.909Z,1005
2022-11-16T20:56:22.631Z,1005
2022-11-16T21:02:05.770Z,1005.1
2022-11-16T21:07:39.859Z,1005.2
2022-11-16T21:13:15.165Z,1005.1
2022-11-16T21:18:56.780Z,1005.1
2022-11-16T21:24:13.519Z,1005
2022-11-16T21:29:50.253Z,1005
2022-11-16T21:35:18.241Z,1004.9
2022-11-16T21:41:04.333Z,1005
2022-11-16T21:46:31.006Z,1004.9
2022-11-16T21:52:08.242Z,1004.9
2022-11-16T21:57:20.806Z,1005
2022-11-16T22:02:51.648Z,1004.8
2022-11-16T22:08:32.908Z,1004.9
2022-11-16T22:14:23.209Z,1004.8
2022-11-16T22:19:48.987Z,1004.9
2022-11-16T22:25:08.629Z,1004.7
2022-11-16T22:31:00.025Z,1004.8
2022-11-16T22:36:11.003Z,1004.7
2022-11-16T22:41:49.344Z,1004.6
2022-11-16T22:47:09.408Z,1004.8
2022-11-16T22:52:43.297Z,1004.7
2022-11-16T22:58:23.813Z,1004.7
2022-11-16T23:03:53.205Z,1004.6
2022-11-16T23:09:31.746Z,1004.7
2022-11-16T23:15:11.090Z,1004.6
2022-11-16T23:20:32.608Z,1004.6
2022-11-16T23:26:06.676Z,1004.7
2022-11-16T23:31:30.784Z,1004.8
2022-11-16T23:37:05.912Z,1004.8
2022-11-16T23:42:41.629Z,1004.7
2022-11-16T23:48:10.922Z,1004.7
2022-11-16T23:54:00.001Z,1004.7
2022-11-16T23:59:30.225Z,1004.6
